sensor_id;sensor_type;location;lat;lon;timestamp;P1;durP1;ratioP1;P2;durP2;ratioP2
55015;SDS011;40919;43.236;21.590;2023-05-16T00:00:41;25.88;;;17.80;;
55015;SDS011;40919;43.236;21.590;2023-05-16T00:03:07;26.88;;;18.02;;
55015;SDS011;40919;43.236;21.590;2023-05-16T00:05:34;24.60;;;17.38;;
55015;SDS011;40919;43.236;21.590;2023-05-16T00:08:00;27.27;;;17.00;;
55015;SDS011;40919;43.236;21.590;2023-05-16T00:10:26;26.90;;;18.45;;
55015;SDS011;40919;43.236;21.590;2023-05-16T00:12:52;27.33;;;17.80;;
55015;SDS011;40919;43.236;21.590;2023-05-16T00:15:18;26.80;;;18.42;;
55015;SDS011;40919;43.236;21.590;2023-05-16T00:17:44;27.25;;;17.98;;
55015;SDS011;40919;43.236;21.590;2023-05-16T00:20:11;26.48;;;18.00;;
55015;SDS011;40919;43.236;21.590;2023-05-16T00:22:38;25.08;;;17.55;;
55015;SDS011;40919;43.236;21.590;2023-05-16T00:25:05;29.98;;;17.55;;
55015;SDS011;40919;43.236;21.590;2023-05-16T00:27:32;29.95;;;18.35;;
55015;SDS011;40919;43.236;21.590;2023-05-16T00:30:00;31.85;;;19.02;;
55015;SDS011;40919;43.236;21.590;2023-05-16T00:32:29;36.45;;;20.45;;
55015;SDS011;40919;43.236;21.590;2023-05-16T00:34:55;26.80;;;19.20;;
55015;SDS011;40919;43.236;21.590;2023-05-16T00:37:21;27.70;;;18.63;;
55015;SDS011;40919;43.236;21.590;2023-05-16T00:39:47;28.00;;;18.75;;
55015;SDS011;40919;43.236;21.590;2023-05-16T00:42:13;30.20;;;19.80;;
55015;SDS011;40919;43.236;21.590;2023-05-16T00:44:39;30.50;;;20.77;;
55015;SDS011;40919;43.236;21.590;2023-05-16T00:47:05;22.95;;;17.10;;
55015;SDS011;40919;43.236;21.590;2023-05-16T00:49:32;20.85;;;17.13;;
55015;SDS011;40919;43.236;21.590;2023-05-16T00:51:58;22.05;;;16.00;;
55015;SDS011;40919;43.236;21.590;2023-05-16T00:54:25;17.77;;;14.48;;
55015;SDS011;40919;43.236;21.590;2023-05-16T00:56:53;20.50;;;14.77;;
55015;SDS011;40919;43.236;21.590;2023-05-16T00:59:20;21.15;;;14.55;;
55015;SDS011;40919;43.236;21.590;2023-05-16T01:01:47;21.83;;;14.80;;
55015;SDS011;40919;43.236;21.590;2023-05-16T01:04:14;16.52;;;13.57;;
55015;SDS011;40919;43.236;21.590;2023-05-16T01:06:41;24.30;;;14.98;;
55015;SDS011;40919;43.236;21.590;2023-05-16T01:09:08;21.88;;;14.82;;
55015;SDS011;40919;43.236;21.590;2023-05-16T01:11:46;21.23;;;14.85;;
55015;SDS011;40919;43.236;21.590;2023-05-16T01:23:04;23.05;;;16.75;;
55015;SDS011;40919;43.236;21.590;2023-05-16T01:28:00;16.08;;;14.00;;
55015;SDS011;40919;43.236;21.590;2023-05-16T01:30:31;18.50;;;14.27;;
55015;SDS011;40919;43.236;21.590;2023-05-16T01:32:59;18.67;;;15.20;;
55015;SDS011;40919;43.236;21.590;2023-05-16T01:35:25;23.13;;;15.30;;
55015;SDS011;40919;43.236;21.590;2023-05-16T01:37:54;22.10;;;14.90;;
55015;SDS011;40919;43.236;21.590;2023-05-16T01:42:52;19.67;;;14.00;;
55015;SDS011;40919;43.236;21.590;2023-05-16T01:45:25;21.05;;;13.63;;
55015;SDS011;40919;43.236;21.590;2023-05-16T01:48:03;23.73;;;15.02;;
55015;SDS011;40919;43.236;21.590;2023-05-16T01:50:42;18.70;;;15.40;;
55015;SDS011;40919;43.236;21.590;2023-05-16T01:53:13;18.55;;;14.50;;
55015;SDS011;40919;43.236;21.590;2023-05-16T01:55:47;21.15;;;15.30;;
55015;SDS011;40919;43.236;21.590;2023-05-16T01:58:17;20.95;;;16.20;;
55015;SDS011;40919;43.236;21.590;2023-05-16T02:00:45;20.60;;;15.25;;
55015;SDS011;40919;43.236;21.590;2023-05-16T02:03:11;20.08;;;16.27;;
55015;SDS011;40919;43.236;21.590;2023-05-16T02:05:37;18.83;;;16.40;;
55015;SDS011;40919;43.236;21.590;2023-05-16T02:08:03;21.13;;;15.27;;
55015;SDS011;40919;43.236;21.590;2023-05-16T02:10:29;21.08;;;15.60;;
55015;SDS011;40919;43.236;21.590;2023-05-16T02:12:55;21.67;;;16.02;;
55015;SDS011;40919;43.236;21.590;2023-05-16T02:15:22;19.70;;;14.98;;
55015;SDS011;40919;43.236;21.590;2023-05-16T02:17:47;22.05;;;16.80;;
55015;SDS011;40919;43.236;21.590;2023-05-16T02:20:13;20.45;;;14.88;;
55015;SDS011;40919;43.236;21.590;2023-05-16T02:22:39;19.80;;;15.27;;
55015;SDS011;40919;43.236;21.590;2023-05-16T02:25:08;23.88;;;15.90;;
55015;SDS011;40919;43.236;21.590;2023-05-16T02:27:34;22.88;;;15.68;;
55015;SDS011;40919;43.236;21.590;2023-05-16T02:30:00;21.40;;;15.70;;
55015;SDS011;40919;43.236;21.590;2023-05-16T02:32:26;25.20;;;16.75;;
55015;SDS011;40919;43.236;21.590;2023-05-16T02:34:52;20.88;;;15.95;;
55015;SDS011;40919;43.236;21.590;2023-05-16T02:37:18;27.25;;;17.23;;
55015;SDS011;40919;43.236;21.590;2023-05-16T02:39:43;26.38;;;16.98;;
55015;SDS011;40919;43.236;21.590;2023-05-16T02:42:09;24.83;;;17.88;;
55015;SDS011;40919;43.236;21.590;2023-05-16T02:44:35;24.58;;;16.45;;
55015;SDS011;40919;43.236;21.590;2023-05-16T02:47:01;24.90;;;17.73;;
55015;SDS011;40919;43.236;21.590;2023-05-16T02:49:27;22.15;;;16.50;;
55015;SDS011;40919;43.236;21.590;2023-05-16T02:51:53;24.70;;;16.48;;
55015;SDS011;40919;43.236;21.590;2023-05-16T02:54:18;22.88;;;17.17;;
55015;SDS011;40919;43.236;21.590;2023-05-16T02:56:45;26.20;;;16.58;;
55015;SDS011;40919;43.236;21.590;2023-05-16T02:59:11;24.83;;;17.17;;
55015;SDS011;40919;43.236;21.590;2023-05-16T03:01:37;23.80;;;16.23;;
55015;SDS011;40919;43.236;21.590;2023-05-16T03:04:03;19.50;;;15.38;;
55015;SDS011;40919;43.236;21.590;2023-05-16T03:06:29;21.20;;;17.02;;
55015;SDS011;40919;43.236;21.590;2023-05-16T03:08:55;25.08;;;16.17;;
55015;SDS011;40919;43.236;21.590;2023-05-16T03:11:21;22.27;;;17.90;;
55015;SDS011;40919;43.236;21.590;2023-05-16T03:13:50;19.48;;;16.60;;
55015;SDS011;40919;43.236;21.590;2023-05-16T03:16:15;20.73;;;16.08;;
55015;SDS011;40919;43.236;21.590;2023-05-16T03:18:41;24.40;;;16.13;;
55015;SDS011;40919;43.236;21.590;2023-05-16T03:21:07;20.35;;;16.85;;
55015;SDS011;40919;43.236;21.590;2023-05-16T03:23:33;21.30;;;16.20;;
55015;SDS011;40919;43.236;21.590;2023-05-16T03:25:59;21.92;;;17.35;;
55015;SDS011;40919;43.236;21.590;2023-05-16T03:28:25;24.77;;;17.15;;
55015;SDS011;40919;43.236;21.590;2023-05-16T03:30:51;24.73;;;17.73;;
55015;SDS011;40919;43.236;21.590;2023-05-16T03:33:17;28.67;;;17.73;;
55015;SDS011;40919;43.236;21.590;2023-05-16T03:35:43;21.02;;;16.58;;
55015;SDS011;40919;43.236;21.590;2023-05-16T03:38:10;26.88;;;17.35;;
55015;SDS011;40919;43.236;21.590;2023-05-16T03:40:36;22.90;;;16.95;;
55015;SDS011;40919;43.236;21.590;2023-05-16T03:43:02;19.05;;;16.88;;
55015;SDS011;40919;43.236;21.590;2023-05-16T03:45:29;24.23;;;16.63;;
55015;SDS011;40919;43.236;21.590;2023-05-16T03:47:55;23.75;;;17.33;;
55015;SDS011;40919;43.236;21.590;2023-05-16T03:50:21;25.15;;;17.73;;
55015;SDS011;40919;43.236;21.590;2023-05-16T03:52:47;27.50;;;20.52;;
55015;SDS011;40919;43.236;21.590;2023-05-16T03:55:13;27.85;;;19.67;;
55015;SDS011;40919;43.236;21.590;2023-05-16T03:57:41;24.55;;;18.92;;
55015;SDS011;40919;43.236;21.590;2023-05-16T04:00:08;28.85;;;17.73;;
55015;SDS011;40919;43.236;21.590;2023-05-16T04:02:35;30.33;;;22.05;;
55015;SDS011;40919;43.236;21.590;2023-05-16T04:05:01;26.33;;;20.58;;
55015;SDS011;40919;43.236;21.590;2023-05-16T04:07:27;41.92;;;28.85;;
55015;SDS011;40919;43.236;21.590;2023-05-16T04:09:53;41.88;;;32.28;;
55015;SDS011;40919;43.236;21.590;2023-05-16T04:12:20;33.60;;;27.30;;
55015;SDS011;40919;43.236;21.590;2023-05-16T04:14:47;27.98;;;23.77;;
55015;SDS011;40919;43.236;21.590;2023-05-16T04:17:13;35.15;;;27.02;;
55015;SDS011;40919;43.236;21.590;2023-05-16T04:19:39;37.97;;;30.65;;
55015;SDS011;40919;43.236;21.590;2023-05-16T04:22:05;35.60;;;30.00;;
55015;SDS011;40919;43.236;21.590;2023-05-16T04:24:31;32.97;;;28.52;;
55015;SDS011;40919;43.236;21.590;2023-05-16T04:26:57;35.88;;;28.25;;
55015;SDS011;40919;43.236;21.590;2023-05-16T04:29:25;31.70;;;26.27;;
55015;SDS011;40919;43.236;21.590;2023-05-16T04:31:51;28.23;;;23.10;;
55015;SDS011;40919;43.236;21.590;2023-05-16T04:34:17;31.40;;;23.17;;
55015;SDS011;40919;43.236;21.590;2023-05-16T04:36:43;27.10;;;20.70;;
55015;SDS011;40919;43.236;21.590;2023-05-16T04:39:09;25.15;;;19.60;;
55015;SDS011;40919;43.236;21.590;2023-05-16T04:41:35;28.05;;;19.20;;
55015;SDS011;40919;43.236;21.590;2023-05-16T04:44:01;26.50;;;17.88;;
55015;SDS011;40919;43.236;21.590;2023-05-16T04:46:28;25.05;;;18.77;;
55015;SDS011;40919;43.236;21.590;2023-05-16T04:48:55;23.77;;;17.52;;
55015;SDS011;40919;43.236;21.590;2023-05-16T04:51:21;24.88;;;17.65;;
55015;SDS011;40919;43.236;21.590;2023-05-16T04:53:47;22.98;;;16.70;;
55015;SDS011;40919;43.236;21.590;2023-05-16T04:56:13;23.80;;;17.33;;
55015;SDS011;40919;43.236;21.590;2023-05-16T04:58:39;23.02;;;15.95;;
55015;SDS011;40919;43.236;21.590;2023-05-16T05:01:05;21.08;;;16.50;;
55015;SDS011;40919;43.236;21.590;2023-05-16T05:03:31;21.08;;;15.73;;
55015;SDS011;40919;43.236;21.590;2023-05-16T05:05:58;30.42;;;21.73;;
55015;SDS011;40919;43.236;21.590;2023-05-16T05:08:24;27.48;;;17.80;;
55015;SDS011;40919;43.236;21.590;2023-05-16T05:10:50;22.40;;;14.90;;
55015;SDS011;40919;43.236;21.590;2023-05-16T05:13:17;21.15;;;15.88;;
55015;SDS011;40919;43.236;21.590;2023-05-16T05:15:43;19.05;;;14.20;;
55015;SDS011;40919;43.236;21.590;2023-05-16T05:18:09;21.40;;;16.80;;
55015;SDS011;40919;43.236;21.590;2023-05-16T05:20:35;22.90;;;17.80;;
55015;SDS011;40919;43.236;21.590;2023-05-16T05:23:02;20.52;;;15.25;;
55015;SDS011;40919;43.236;21.590;2023-05-16T05:25:27;19.17;;;15.60;;
55015;SDS011;40919;43.236;21.590;2023-05-16T05:27:53;22.40;;;17.42;;
55015;SDS011;40919;43.236;21.590;2023-05-16T05:30:19;25.58;;;18.55;;
55015;SDS011;40919;43.236;21.590;2023-05-16T05:32:46;25.27;;;19.77;;
55015;SDS011;40919;43.236;21.590;2023-05-16T05:35:12;27.20;;;20.70;;
55015;SDS011;40919;43.236;21.590;2023-05-16T05:37:37;26.55;;;20.90;;
55015;SDS011;40919;43.236;21.590;2023-05-16T05:40:04;28.33;;;22.60;;
55015;SDS011;40919;43.236;21.590;2023-05-16T05:42:30;29.88;;;22.70;;
55015;SDS011;40919;43.236;21.590;2023-05-16T05:44:56;32.72;;;25.75;;
55015;SDS011;40919;43.236;21.590;2023-05-16T05:47:22;35.33;;;27.17;;
55015;SDS011;40919;43.236;21.590;2023-05-16T05:49:48;46.15;;;41.47;;
55015;SDS011;40919;43.236;21.590;2023-05-16T05:52:14;63.95;;;57.40;;
55015;SDS011;40919;43.236;21.590;2023-05-16T05:54:40;67.38;;;60.08;;
55015;SDS011;40919;43.236;21.590;2023-05-16T05:57:06;58.33;;;52.13;;
55015;SDS011;40919;43.236;21.590;2023-05-16T05:59:32;49.97;;;43.60;;
55015;SDS011;40919;43.236;21.590;2023-05-16T06:01:58;53.75;;;47.58;;
55015;SDS011;40919;43.236;21.590;2023-05-16T06:04:24;55.72;;;46.45;;
55015;SDS011;40919;43.236;21.590;2023-05-16T06:06:50;48.90;;;43.60;;
55015;SDS011;40919;43.236;21.590;2023-05-16T06:09:16;49.88;;;42.35;;
55015;SDS011;40919;43.236;21.590;2023-05-16T06:11:42;46.40;;;41.38;;
55015;SDS011;40919;43.236;21.590;2023-05-16T06:14:10;48.65;;;39.75;;
55015;SDS011;40919;43.236;21.590;2023-05-16T06:16:36;46.05;;;41.22;;
55015;SDS011;40919;43.236;21.590;2023-05-16T06:19:04;54.67;;;43.33;;
55015;SDS011;40919;43.236;21.590;2023-05-16T06:21:30;52.75;;;42.97;;
55015;SDS011;40919;43.236;21.590;2023-05-16T06:23:57;54.60;;;42.05;;
55015;SDS011;40919;43.236;21.590;2023-05-16T06:26:23;52.15;;;40.45;;
55015;SDS011;40919;43.236;21.590;2023-05-16T06:28:49;47.58;;;37.30;;
55015;SDS011;40919;43.236;21.590;2023-05-16T06:31:14;45.08;;;37.05;;
55015;SDS011;40919;43.236;21.590;2023-05-16T06:33:40;45.88;;;40.85;;
55015;SDS011;40919;43.236;21.590;2023-05-16T06:36:06;49.22;;;38.60;;
55015;SDS011;40919;43.236;21.590;2023-05-16T06:38:32;53.28;;;39.28;;
55015;SDS011;40919;43.236;21.590;2023-05-16T06:40:58;44.55;;;36.00;;
55015;SDS011;40919;43.236;21.590;2023-05-16T06:43:25;47.60;;;37.88;;
55015;SDS011;40919;43.236;21.590;2023-05-16T06:45:50;42.40;;;34.05;;
55015;SDS011;40919;43.236;21.590;2023-05-16T06:48:16;40.72;;;31.80;;
55015;SDS011;40919;43.236;21.590;2023-05-16T06:50:46;37.15;;;28.40;;
55015;SDS011;40919;43.236;21.590;2023-05-16T06:53:12;40.45;;;27.98;;
55015;SDS011;40919;43.236;21.590;2023-05-16T06:55:38;37.47;;;28.88;;
55015;SDS011;40919;43.236;21.590;2023-05-16T06:58:04;38.80;;;30.73;;
55015;SDS011;40919;43.236;21.590;2023-05-16T07:00:30;39.40;;;31.23;;
55015;SDS011;40919;43.236;21.590;2023-05-16T07:02:56;38.30;;;32.42;;
55015;SDS011;40919;43.236;21.590;2023-05-16T07:05:22;40.88;;;31.20;;
55015;SDS011;40919;43.236;21.590;2023-05-16T07:07:47;42.60;;;33.63;;
55015;SDS011;40919;43.236;21.590;2023-05-16T07:10:13;41.33;;;33.67;;
55015;SDS011;40919;43.236;21.590;2023-05-16T07:12:40;53.97;;;37.70;;
55015;SDS011;40919;43.236;21.590;2023-05-16T07:15:07;47.05;;;38.97;;
55015;SDS011;40919;43.236;21.590;2023-05-16T07:17:33;41.78;;;35.08;;
55015;SDS011;40919;43.236;21.590;2023-05-16T07:19:59;36.22;;;32.25;;
55015;SDS011;40919;43.236;21.590;2023-05-16T07:22:25;38.10;;;31.70;;
55015;SDS011;40919;43.236;21.590;2023-05-16T07:24:51;36.30;;;30.13;;
55015;SDS011;40919;43.236;21.590;2023-05-16T07:27:21;38.88;;;31.50;;
55015;SDS011;40919;43.236;21.590;2023-05-16T07:29:47;50.50;;;32.08;;
55015;SDS011;40919;43.236;21.590;2023-05-16T07:32:13;39.42;;;29.27;;
55015;SDS011;40919;43.236;21.590;2023-05-16T07:34:38;37.65;;;26.35;;
55015;SDS011;40919;43.236;21.590;2023-05-16T07:37:04;32.35;;;23.48;;
55015;SDS011;40919;43.236;21.590;2023-05-16T07:39:37;23.33;;;20.30;;
55015;SDS011;40919;43.236;21.590;2023-05-16T07:42:05;27.42;;;19.70;;
55015;SDS011;40919;43.236;21.590;2023-05-16T07:44:31;32.45;;;19.65;;
55015;SDS011;40919;43.236;21.590;2023-05-16T07:46:57;32.70;;;20.75;;
55015;SDS011;40919;43.236;21.590;2023-05-16T07:49:23;25.60;;;19.98;;
55015;SDS011;40919;43.236;21.590;2023-05-16T07:51:49;30.20;;;19.30;;
55015;SDS011;40919;43.236;21.590;2023-05-16T07:54:15;27.77;;;19.45;;
55015;SDS011;40919;43.236;21.590;2023-05-16T07:56:40;20.83;;;16.75;;
55015;SDS011;40919;43.236;21.590;2023-05-16T07:59:06;28.25;;;19.55;;
55015;SDS011;40919;43.236;21.590;2023-05-16T08:01:32;28.90;;;19.35;;
55015;SDS011;40919;43.236;21.590;2023-05-16T08:03:58;26.23;;;19.33;;
55015;SDS011;40919;43.236;21.590;2023-05-16T08:06:24;25.15;;;18.40;;
55015;SDS011;40919;43.236;21.590;2023-05-16T08:08:50;30.63;;;18.90;;
55015;SDS011;40919;43.236;21.590;2023-05-16T08:11:15;24.85;;;18.02;;
55015;SDS011;40919;43.236;21.590;2023-05-16T08:13:42;24.30;;;19.90;;
55015;SDS011;40919;43.236;21.590;2023-05-16T08:16:09;25.70;;;20.15;;
55015;SDS011;40919;43.236;21.590;2023-05-16T08:18:35;26.42;;;19.55;;
55015;SDS011;40919;43.236;21.590;2023-05-16T08:21:01;24.65;;;20.60;;
55015;SDS011;40919;43.236;21.590;2023-05-16T08:23:27;32.10;;;21.45;;
55015;SDS011;40919;43.236;21.590;2023-05-16T08:25:53;29.67;;;20.55;;
55015;SDS011;40919;43.236;21.590;2023-05-16T08:28:19;27.52;;;21.10;;
55015;SDS011;40919;43.236;21.590;2023-05-16T08:30:45;33.08;;;22.50;;
55015;SDS011;40919;43.236;21.590;2023-05-16T08:33:11;33.65;;;23.35;;
55015;SDS011;40919;43.236;21.590;2023-05-16T08:35:41;44.55;;;27.73;;
55015;SDS011;40919;43.236;21.590;2023-05-16T08:38:08;35.22;;;25.52;;
55015;SDS011;40919;43.236;21.590;2023-05-16T08:40:33;37.00;;;23.00;;
55015;SDS011;40919;43.236;21.590;2023-05-16T08:43:00;41.58;;;26.08;;
55015;SDS011;40919;43.236;21.590;2023-05-16T08:45:26;33.42;;;24.65;;
55015;SDS011;40919;43.236;21.590;2023-05-16T08:47:55;36.72;;;27.00;;
55015;SDS011;40919;43.236;21.590;2023-05-16T08:50:24;40.00;;;26.08;;
55015;SDS011;40919;43.236;21.590;2023-05-16T08:52:53;30.08;;;22.63;;
55015;SDS011;40919;43.236;21.590;2023-05-16T08:55:19;32.08;;;23.35;;
55015;SDS011;40919;43.236;21.590;2023-05-16T08:57:48;31.25;;;23.50;;
55015;SDS011;40919;43.236;21.590;2023-05-16T09:00:16;27.17;;;20.65;;
55015;SDS011;40919;43.236;21.590;2023-05-16T09:02:43;29.88;;;21.45;;
55015;SDS011;40919;43.236;21.590;2023-05-16T09:05:11;31.17;;;21.85;;
55015;SDS011;40919;43.236;21.590;2023-05-16T09:07:38;29.50;;;23.33;;
55015;SDS011;40919;43.236;21.590;2023-05-16T09:10:07;32.80;;;23.05;;
55015;SDS011;40919;43.236;21.590;2023-05-16T09:12:34;33.47;;;22.70;;
55015;SDS011;40919;43.236;21.590;2023-05-16T09:15:04;26.50;;;20.33;;
55015;SDS011;40919;43.236;21.590;2023-05-16T09:17:35;28.70;;;21.33;;
55015;SDS011;40919;43.236;21.590;2023-05-16T09:20:23;32.45;;;24.20;;
55015;SDS011;40919;43.236;21.590;2023-05-16T09:25:19;29.42;;;22.30;;
55015;SDS011;40919;43.236;21.590;2023-05-16T09:27:46;37.00;;;23.15;;
55015;SDS011;40919;43.236;21.590;2023-05-16T09:30:15;34.60;;;24.42;;
55015;SDS011;40919;43.236;21.590;2023-05-16T09:32:54;33.70;;;23.85;;
55015;SDS011;40919;43.236;21.590;2023-05-16T09:36:07;33.28;;;23.20;;
55015;SDS011;40919;43.236;21.590;2023-05-16T09:39:23;34.90;;;22.88;;
55015;SDS011;40919;43.236;21.590;2023-05-16T09:41:54;29.42;;;20.15;;
55015;SDS011;40919;43.236;21.590;2023-05-16T09:44:22;26.15;;;19.63;;
55015;SDS011;40919;43.236;21.590;2023-05-16T09:46:48;23.48;;;17.60;;
55015;SDS011;40919;43.236;21.590;2023-05-16T09:49:18;24.77;;;19.30;;
55015;SDS011;40919;43.236;21.590;2023-05-16T09:51:45;28.23;;;19.50;;
55015;SDS011;40919;43.236;21.590;2023-05-16T09:54:12;26.58;;;20.15;;
55015;SDS011;40919;43.236;21.590;2023-05-16T09:56:49;27.83;;;19.98;;
55015;SDS011;40919;43.236;21.590;2023-05-16T09:59:15;29.10;;;16.98;;
55015;SDS011;40919;43.236;21.590;2023-05-16T10:01:42;25.02;;;18.60;;
55015;SDS011;40919;43.236;21.590;2023-05-16T10:04:25;28.80;;;19.30;;
55015;SDS011;40919;43.236;21.590;2023-05-16T10:10:36;31.95;;;20.13;;
55015;SDS011;40919;43.236;21.590;2023-05-16T10:13:31;23.17;;;12.98;;
55015;SDS011;40919;43.236;21.590;2023-05-16T11:25:35;11.07;;;7.28;;
55015;SDS011;40919;43.236;21.590;2023-05-16T11:29:02;10.68;;;5.82;;
55015;SDS011;40919;43.236;21.590;2023-05-16T11:44:31;16.50;;;5.43;;
55015;SDS011;40919;43.236;21.590;2023-05-16T11:51:54;20.60;;;6.55;;
55015;SDS011;40919;43.236;21.590;2023-05-16T12:08:31;19.15;;;11.43;;
55015;SDS011;40919;43.236;21.590;2023-05-16T12:53:02;18.65;;;10.85;;
55015;SDS011;40919;43.236;21.590;2023-05-16T12:59:11;14.40;;;8.23;;
55015;SDS011;40919;43.236;21.590;2023-05-16T13:02:17;21.88;;;10.27;;
55015;SDS011;40919;43.236;21.590;2023-05-16T13:06:04;19.73;;;11.43;;
55015;SDS011;40919;43.236;21.590;2023-05-16T13:08:56;10.30;;;6.00;;
55015;SDS011;40919;43.236;21.590;2023-05-16T13:11:27;13.23;;;7.90;;
55015;SDS011;40919;43.236;21.590;2023-05-16T13:13:54;13.45;;;6.20;;
55015;SDS011;40919;43.236;21.590;2023-05-16T13:16:22;14.38;;;6.20;;
55015;SDS011;40919;43.236;21.590;2023-05-16T13:18:50;11.88;;;5.55;;
55015;SDS011;40919;43.236;21.590;2023-05-16T13:21:26;12.20;;;6.57;;
55015;SDS011;40919;43.236;21.590;2023-05-16T13:23:56;17.88;;;6.65;;
55015;SDS011;40919;43.236;21.590;2023-05-16T13:26:28;14.45;;;7.47;;
55015;SDS011;40919;43.236;21.590;2023-05-16T13:29:04;15.63;;;6.88;;
55015;SDS011;40919;43.236;21.590;2023-05-16T13:31:34;14.75;;;7.43;;
55015;SDS011;40919;43.236;21.590;2023-05-16T13:34:00;14.30;;;6.60;;
55015;SDS011;40919;43.236;21.590;2023-05-16T13:36:27;15.88;;;6.95;;
55015;SDS011;40919;43.236;21.590;2023-05-16T13:38:54;18.85;;;8.43;;
55015;SDS011;40919;43.236;21.590;2023-05-16T13:41:25;17.27;;;10.00;;
55015;SDS011;40919;43.236;21.590;2023-05-16T13:43:53;14.48;;;8.50;;
55015;SDS011;40919;43.236;21.590;2023-05-16T13:46:27;19.45;;;9.35;;
55015;SDS011;40919;43.236;21.590;2023-05-16T13:49:39;25.95;;;10.02;;
55015;SDS011;40919;43.236;21.590;2023-05-16T13:56:44;15.35;;;8.57;;
55015;SDS011;40919;43.236;21.590;2023-05-16T14:03:32;19.95;;;10.00;;
55015;SDS011;40919;43.236;21.590;2023-05-16T14:06:05;16.60;;;7.80;;
55015;SDS011;40919;43.236;21.590;2023-05-16T14:09:35;13.63;;;7.20;;
55015;SDS011;40919;43.236;21.590;2023-05-16T14:13:13;14.75;;;8.32;;
55015;SDS011;40919;43.236;21.590;2023-05-16T14:16:45;16.67;;;8.73;;
55015;SDS011;40919;43.236;21.590;2023-05-16T14:41:20;17.83;;;10.52;;
55015;SDS011;40919;43.236;21.590;2023-05-16T14:48:18;15.95;;;8.15;;
55015;SDS011;40919;43.236;21.590;2023-05-16T15:21:54;12.13;;;7.70;;
55015;SDS011;40919;43.236;21.590;2023-05-16T15:29:26;23.35;;;13.13;;
55015;SDS011;40919;43.236;21.590;2023-05-16T15:32:58;18.15;;;11.05;;
55015;SDS011;40919;43.236;21.590;2023-05-16T15:54:09;14.65;;;7.15;;
55015;SDS011;40919;43.236;21.590;2023-05-16T16:01:03;19.73;;;10.50;;
55015;SDS011;40919;43.236;21.590;2023-05-16T16:08:09;24.73;;;12.52;;
55015;SDS011;40919;43.236;21.590;2023-05-16T16:14:57;22.38;;;11.40;;
55015;SDS011;40919;43.236;21.590;2023-05-16T16:18:22;19.65;;;9.27;;
55015;SDS011;40919;43.236;21.590;2023-05-16T16:25:18;17.92;;;9.27;;
55015;SDS011;40919;43.236;21.590;2023-05-16T16:32:02;17.13;;;7.00;;
55015;SDS011;40919;43.236;21.590;2023-05-16T16:39:14;19.50;;;7.55;;
55015;SDS011;40919;43.236;21.590;2023-05-16T16:50:05;9.75;;;5.50;;
55015;SDS011;40919;43.236;21.590;2023-05-16T16:53:32;16.88;;;6.38;;
55015;SDS011;40919;43.236;21.590;2023-05-16T17:10:43;15.82;;;6.65;;
55015;SDS011;40919;43.236;21.590;2023-05-16T17:17:35;18.15;;;7.78;;
55015;SDS011;40919;43.236;21.590;2023-05-16T17:30:50;16.05;;;6.50;;
55015;SDS011;40919;43.236;21.590;2023-05-16T17:40:43;15.93;;;9.32;;
55015;SDS011;40919;43.236;21.590;2023-05-16T17:51:14;13.63;;;6.82;;
55015;SDS011;40919;43.236;21.590;2023-05-16T18:05:46;25.85;;;7.63;;
55015;SDS011;40919;43.236;21.590;2023-05-16T18:08:23;13.15;;;6.00;;
55015;SDS011;40919;43.236;21.590;2023-05-16T18:11:10;19.33;;;6.55;;
55015;SDS011;40919;43.236;21.590;2023-05-16T18:13:45;18.65;;;7.53;;
55015;SDS011;40919;43.236;21.590;2023-05-16T18:17:03;15.30;;;5.97;;
55015;SDS011;40919;43.236;21.590;2023-05-16T18:26:10;10.27;;;4.60;;
55015;SDS011;40919;43.236;21.590;2023-05-16T18:29:10;16.23;;;5.95;;
55015;SDS011;40919;43.236;21.590;2023-05-16T18:31:38;12.93;;;5.97;;
55015;SDS011;40919;43.236;21.590;2023-05-16T18:34:36;12.20;;;4.72;;
55015;SDS011;40919;43.236;21.590;2023-05-16T18:37:20;13.85;;;6.13;;
55015;SDS011;40919;43.236;21.590;2023-05-16T18:39:54;18.00;;;7.15;;
55015;SDS011;40919;43.236;21.590;2023-05-16T18:42:35;20.55;;;8.00;;
55015;SDS011;40919;43.236;21.590;2023-05-16T18:45:15;16.80;;;5.35;;
55015;SDS011;40919;43.236;21.590;2023-05-16T18:50:33;13.23;;;6.72;;
55015;SDS011;40919;43.236;21.590;2023-05-16T18:53:43;21.98;;;6.60;;
55015;SDS011;40919;43.236;21.590;2023-05-16T18:56:53;26.95;;;13.93;;
55015;SDS011;40919;43.236;21.590;2023-05-16T19:00:30;25.77;;;15.07;;
55015;SDS011;40919;43.236;21.590;2023-05-16T19:03:42;43.10;;;27.40;;
55015;SDS011;40919;43.236;21.590;2023-05-16T19:10:04;16.92;;;9.18;;
55015;SDS011;40919;43.236;21.590;2023-05-16T19:13:24;25.98;;;11.32;;
55015;SDS011;40919;43.236;21.590;2023-05-16T19:19:37;15.30;;;6.60;;
55015;SDS011;40919;43.236;21.590;2023-05-16T19:32:16;24.05;;;8.73;;
55015;SDS011;40919;43.236;21.590;2023-05-16T19:41:29;14.05;;;4.72;;
55015;SDS011;40919;43.236;21.590;2023-05-16T19:44:04;14.10;;;5.97;;
55015;SDS011;40919;43.236;21.590;2023-05-16T19:47:05;16.00;;;5.95;;
55015;SDS011;40919;43.236;21.590;2023-05-16T19:50:39;14.30;;;5.05;;
55015;SDS011;40919;43.236;21.590;2023-05-16T19:59:36;14.43;;;4.40;;
55015;SDS011;40919;43.236;21.590;2023-05-16T20:05:03;17.33;;;5.60;;
55015;SDS011;40919;43.236;21.590;2023-05-16T20:14:11;11.65;;;4.20;;
55015;SDS011;40919;43.236;21.590;2023-05-16T20:17:24;18.45;;;5.22;;
55015;SDS011;40919;43.236;21.590;2023-05-16T20:19:57;10.95;;;5.45;;
55015;SDS011;40919;43.236;21.590;2023-05-16T20:23:04;12.73;;;5.43;;
55015;SDS011;40919;43.236;21.590;2023-05-16T20:26:03;13.48;;;5.13;;
55015;SDS011;40919;43.236;21.590;2023-05-16T20:29:09;14.15;;;5.55;;
55015;SDS011;40919;43.236;21.590;2023-05-16T20:32:06;20.20;;;5.55;;
55015;SDS011;40919;43.236;21.590;2023-05-16T20:34:44;12.95;;;5.43;;
55015;SDS011;40919;43.236;21.590;2023-05-16T20:38:13;13.95;;;5.45;;
55015;SDS011;40919;43.236;21.590;2023-05-16T20:58:04;18.00;;;7.90;;
55015;SDS011;40919;43.236;21.590;2023-05-16T21:18:07;16.48;;;8.13;;
55015;SDS011;40919;43.236;21.590;2023-05-16T21:21:18;21.20;;;9.65;;
55015;SDS011;40919;43.236;21.590;2023-05-16T21:35:03;24.00;;;9.55;;
55015;SDS011;40919;43.236;21.590;2023-05-16T21:38:23;13.82;;;8.40;;
55015;SDS011;40919;43.236;21.590;2023-05-16T21:40:55;18.80;;;8.15;;
55015;SDS011;40919;43.236;21.590;2023-05-16T21:43:28;15.38;;;8.13;;
55015;SDS011;40919;43.236;21.590;2023-05-16T21:46:13;14.60;;;6.00;;
55015;SDS011;40919;43.236;21.590;2023-05-16T23:14:14;20.17;;;9.48;;
55015;SDS011;40919;43.236;21.590;2023-05-16T23:28:27;19.10;;;8.27;;
